createdAt,value
2022-08-07T00:00:30.022Z,23.2
2022-08-07T00:03:36.700Z,23.05
2022-08-07T00:06:03.555Z,22.64
2022-08-07T00:08:31.802Z,22.69
2022-08-07T00:11:00.084Z,23.04
2022-08-07T00:13:28.296Z,22.48
2022-08-07T00:16:33.600Z,23.07
2022-08-07T00:19:01.872Z,22.72
2022-08-07T00:21:55.875Z,22.89
2022-08-07T00:24:35.398Z,23.62
2022-08-07T00:27:06.128Z,23.04
2022-08-07T00:29:32.157Z,23.09
2022-08-07T00:32:00.177Z,23.68
2022-08-07T00:34:28.440Z,23.28
2022-08-07T00:37:41.506Z,22.99
2022-08-07T00:40:01.976Z,23.51
2022-08-07T00:42:30.200Z,23.54
2022-08-07T00:45:27.308Z,23.33
2022-08-07T00:48:32.699Z,23.7
2022-08-07T00:51:01.106Z,23.75
2022-08-07T00:53:38.758Z,22.99
2022-08-07T00:56:34.463Z,23.48
2022-08-07T00:59:02.688Z,23.3
2022-08-07T01:01:41.235Z,23.58
2022-08-07T01:04:40.309Z,23.46
2022-08-07T01:07:04.515Z,23.4
2022-08-07T01:09:51.278Z,23.59
2022-08-07T01:12:05.451Z,23.38
2022-08-07T01:14:29.252Z,23.45
2022-08-07T01:17:34.565Z,23.6
2022-08-07T01:20:02.868Z,23.5
2022-08-07T01:22:31.045Z,23.58
2022-08-07T01:25:40.153Z,23.71
2022-08-07T01:28:04.617Z,23.66
2022-08-07T01:30:32.916Z,23.94
2022-08-07T01:33:02.249Z,23.85
2022-08-07T01:35:37.062Z,23.88
2022-08-07T01:38:35.095Z,24.03
2022-08-07T01:41:02.888Z,24.3
2022-08-07T01:43:23.023Z,23.82
2022-08-07T01:46:28.275Z,24.15
2022-08-07T01:49:33.591Z,24.22
2022-08-07T01:52:04.687Z,24.36
2022-08-07T01:54:32.741Z,24.39
2022-08-07T01:58:01.809Z,24.27
2022-08-07T02:00:03.646Z,24.54
2022-08-07T02:03:12.696Z,24.38
2022-08-07T02:06:31.077Z,24.25
2022-08-07T02:09:33.556Z,24.73
2022-08-07T02:12:29.124Z,24.45
2022-08-07T02:15:30.199Z,24.71
2022-08-07T02:18:35.496Z,24.78
2022-08-07T02:21:06.243Z,25.26
2022-08-07T02:23:35.893Z,25.3
2022-08-07T02:26:11.004Z,24.93
2022-08-07T02:28:28.486Z,25.16
2022-08-07T02:31:33.798Z,25.5
2022-08-07T02:34:03.415Z,25.82
2022-08-07T02:37:08.165Z,25.51
2022-08-07T02:39:42.701Z,25.65
2022-08-07T02:42:03.870Z,25.91
2022-08-07T02:44:23.935Z,26.08
2022-08-07T02:47:35.014Z,25.88
2022-08-07T02:50:34.529Z,25.74
2022-08-07T02:53:03.589Z,25.79
2022-08-07T02:56:02.808Z,26.11
2022-08-07T02:58:36.333Z,26.24
2022-08-07T03:01:04.633Z,26.19
2022-08-07T03:03:42.411Z,26.28
2022-08-07T03:06:01.073Z,26.35
2022-08-07T03:08:29.639Z,26.61
2022-08-07T03:11:38.441Z,27.04
2022-08-07T03:14:02.924Z,26.35
2022-08-07T03:16:31.162Z,26.76
2022-08-07T03:19:36.848Z,26.8
2022-08-07T03:22:04.743Z,26.97
2022-08-07T03:24:32.962Z,26.69
2022-08-07T03:27:01.231Z,26.49
2022-08-07T03:29:29.494Z,26.67
2022-08-07T03:32:34.772Z,26.98
2022-08-07T03:35:17.203Z,27.14
2022-08-07T03:37:32.661Z,27.35
2022-08-07T03:40:15.083Z,27.21
2022-08-07T03:42:27.764Z,27.21
2022-08-07T03:45:33.081Z,27.37
2022-08-07T03:47:53.116Z,27.25
2022-08-07T03:50:22.843Z,27.81
2022-08-07T03:53:30.363Z,27.65
2022-08-07T03:56:32.514Z,27.83
2022-08-07T03:59:05.829Z,27.92
2022-08-07T04:01:28.538Z,28.04
2022-08-07T04:04:33.817Z,28.16
2022-08-07T04:07:02.050Z,27.81
2022-08-07T04:09:44.985Z,27.82
2022-08-07T04:12:35.590Z,27.65
2022-08-07T04:15:05.043Z,27.86
2022-08-07T04:17:32.226Z,27.68
2022-08-07T04:20:00.337Z,27.96
2022-08-07T04:22:29.029Z,27.98
2022-08-07T04:25:35.985Z,28.29
2022-08-07T04:28:02.224Z,28.37
2022-08-07T04:30:36.112Z,28.31
2022-08-07T04:33:35.745Z,28.67
2022-08-07T04:36:06.308Z,28.83
2022-08-07T04:38:32.217Z,28.69
2022-08-07T04:41:00.487Z,15.15
2022-08-07T04:45:11.717Z,28.95
2022-08-07T04:48:17.355Z,29.03
2022-08-07T04:51:27.183Z,29.18
2022-08-07T04:54:29.890Z,28.98
2022-08-07T04:58:08.950Z,29.45
2022-08-07T05:00:08.169Z,29.29
2022-08-07T05:02:29.444Z,29.08
2022-08-07T05:05:52.400Z,29.36
2022-08-07T05:08:03.002Z,28.97
2022-08-07T05:10:31.271Z,29.43
2022-08-07T05:14:45.048Z,29.6
2022-08-07T05:16:04.939Z,29.56
2022-08-07T05:18:33.047Z,29.68
2022-08-07T05:21:01.302Z,29.64
2022-08-07T05:23:30.255Z,29.63
2022-08-07T05:26:34.894Z,29.59
2022-08-07T05:29:04.041Z,29.82
2022-08-07T05:31:34.917Z,29.42
2022-08-07T05:34:01.609Z,29.3
2022-08-07T05:36:30.240Z,29.77
2022-08-07T05:40:06.082Z,29.81
2022-08-07T05:42:04.516Z,29.89
2022-08-07T05:44:29.856Z,29.58
2022-08-07T05:47:37.962Z,29.63
2022-08-07T05:50:32.126Z,29.68
2022-08-07T05:54:08.915Z,29.62
2022-08-07T05:56:01.735Z,29.52
2022-08-07T05:58:36.477Z,29.26
2022-08-07T06:01:04.923Z,29.34
2022-08-07T06:03:54.192Z,29.39
2022-08-07T06:06:35.732Z,29.42
2022-08-07T06:09:04.514Z,29.4
2022-08-07T06:11:32.216Z,29.43
2022-08-07T06:14:11.357Z,29.25
2022-08-07T06:16:29.196Z,29.02
2022-08-07T06:19:48.069Z,29
2022-08-07T06:22:12.176Z,29.14
2022-08-07T06:24:37.358Z,29.07
2022-08-07T06:27:44.659Z,29.08
2022-08-07T06:30:04.067Z,29.18
2022-08-07T06:32:32.613Z,29.23
2022-08-07T06:35:00.575Z,28.74
2022-08-07T06:38:05.875Z,28.92
2022-08-07T06:40:34.462Z,28.64
2022-08-07T06:43:02.373Z,28.52
2022-08-07T06:45:22.401Z,28.26
2022-08-07T06:48:27.805Z,28.29
2022-08-07T06:51:33.642Z,27.98
2022-08-07T06:54:12.343Z,27.96
2022-08-07T06:56:29.563Z,27.45
2022-08-07T07:00:11.307Z,27.69
2022-08-07T07:02:03.148Z,27.52
2022-08-07T07:04:32.375Z,27.51
2022-08-07T07:07:58.897Z,27.62
2022-08-07T07:10:04.910Z,27.28
2022-08-07T07:12:33.534Z,27.51
2022-08-07T07:15:03.363Z,27.36
2022-08-07T07:17:45.312Z,27.42
2022-08-07T07:20:35.735Z,27.18
2022-08-07T07:24:06.953Z,27.37
2022-08-07T07:26:31.795Z,27.25
2022-08-07T07:28:42.295Z,27.47
2022-08-07T07:31:04.999Z,27.36
2022-08-07T07:33:33.246Z,27.34
2022-08-07T07:36:04.512Z,29
2022-08-07T07:39:06.893Z,27.28
2022-08-07T07:41:50.511Z,27.53
2022-08-07T07:44:14.956Z,27.89
2022-08-07T07:46:36.168Z,28.25
2022-08-07T07:50:32.362Z,28.37
2022-08-07T07:52:33.996Z,28.13
2022-08-07T07:55:03.377Z,28.21
2022-08-07T07:57:44.248Z,28.34
2022-08-07T08:00:35.807Z,28.55
2022-08-07T08:03:04.530Z,28.2
2022-08-07T08:06:04.356Z,27.87
2022-08-07T08:08:01.520Z,27.35
2022-08-07T08:11:05.875Z,28.58
2022-08-07T08:13:36.855Z,28.7
2022-08-07T08:16:02.365Z,28.93
2022-08-07T08:18:30.580Z,28.75
2022-08-07T08:22:08.205Z,29.15
2022-08-07T08:24:04.181Z,28.22
2022-08-07T08:26:32.419Z,30.14
2022-08-07T08:29:00.648Z,29.75
2022-08-07T08:31:30.464Z,27.63
2022-08-07T08:34:34.232Z,30.27
2022-08-07T08:37:02.438Z,30.45
2022-08-07T08:39:39.205Z,28.36
2022-08-07T08:43:13.092Z,28.94
2022-08-07T08:47:34.491Z,27.75
2022-08-07T08:50:02.894Z,28.76
2022-08-07T08:52:20.829Z,28.58
2022-08-07T08:55:53.949Z,28.66
2022-08-07T08:58:31.423Z,28.38
2022-08-07T09:00:59.688Z,29.19
2022-08-07T09:03:47.861Z,28.22
2022-08-07T09:06:33.238Z,28.02
2022-08-07T09:09:01.463Z,28.18
2022-08-07T09:11:43.250Z,28.81
2022-08-07T09:14:35.077Z,27.76
2022-08-07T09:17:03.306Z,27.9
2022-08-07T09:19:50.824Z,28.57
2022-08-07T09:24:28.215Z,28.55
2022-08-07T09:25:06.164Z,28.34
2022-08-07T09:27:38.275Z,28.91
2022-08-07T09:30:07.801Z,29.14
2022-08-07T09:32:31.014Z,28.09
2022-08-07T09:36:12.218Z,28.67
2022-08-07T09:39:27.552Z,28.82
2022-08-07T09:42:24.849Z,28.64
2022-08-07T09:46:28.824Z,28.04
2022-08-07T09:48:29.919Z,27.68
2022-08-07T09:50:53.503Z,27.86
2022-08-07T09:53:21.806Z,28.08
2022-08-07T09:56:33.988Z,28.72
2022-08-07T09:59:37.160Z,28.52
2022-08-07T10:02:00.612Z,28.83
2022-08-07T10:05:12.327Z,28.07
2022-08-07T10:07:39.649Z,28.46
2022-08-07T10:10:03.088Z,28.1
2022-08-07T10:12:30.713Z,28.56
2022-08-07T10:15:37.521Z,28.24
2022-08-07T10:18:04.264Z,28.37
2022-08-07T10:20:32.547Z,27.99
2022-08-07T10:23:00.769Z,28.09
2022-08-07T10:25:32.968Z,27.65
2022-08-07T10:28:34.309Z,27.45
2022-08-07T10:31:02.580Z,27.43
2022-08-07T10:34:05.210Z,27.45
2022-08-07T10:36:37.604Z,27.63
2022-08-07T10:39:05.422Z,27.57
2022-08-07T10:41:47.547Z,27.5
2022-08-07T10:44:02.488Z,27.61
2022-08-07T10:46:29.132Z,27.08
2022-08-07T10:49:45.418Z,27.02
2022-08-07T10:52:13.109Z,27
2022-08-07T10:54:30.955Z,27.19
2022-08-07T10:57:36.990Z,26.92
2022-08-07T10:59:56.292Z,27.16
2022-08-07T11:02:27.511Z,26.94
2022-08-07T11:06:06.899Z,26.81
2022-08-07T11:08:35.177Z,26.91
2022-08-07T11:11:03.399Z,26.89
2022-08-07T11:14:42.836Z,26.75
2022-08-07T11:15:59.906Z,26.72
2022-08-07T11:18:28.131Z,26.56
2022-08-07T11:21:33.435Z,26.92
2022-08-07T11:24:01.709Z,26.69
2022-08-07T11:26:29.957Z,26.55
2022-08-07T11:30:18.097Z,26.45
2022-08-07T11:33:17.713Z,26.19
2022-08-07T11:36:25.321Z,26
2022-08-07T11:39:28.424Z,25.57
2022-08-07T11:42:33.582Z,25.8
2022-08-07T11:45:03.481Z,25.85
2022-08-07T11:47:38.785Z,25.36
2022-08-07T11:50:35.373Z,25.26
2022-08-07T11:53:05.082Z,25.27
2022-08-07T11:56:09.895Z,24.62
2022-08-07T11:58:33.271Z,23.91
2022-08-07T12:01:58.958Z,24.15
2022-08-07T12:04:02.515Z,23.99
2022-08-07T12:06:36.758Z,23.93
2022-08-07T12:09:36.116Z,23.04
2022-08-07T12:12:09.000Z,22.86
2022-08-07T12:14:32.619Z,23.41
2022-08-07T12:17:00.848Z,23.52
2022-08-07T12:19:35.483Z,23.78
2022-08-07T12:22:36.840Z,22.58
2022-08-07T12:25:07.474Z,23.64
2022-08-07T12:28:03.921Z,22.35
2022-08-07T12:30:36.279Z,22.59
2022-08-07T12:33:09.407Z,22.75
2022-08-07T12:35:36.210Z,22.15
2022-08-07T12:38:08.756Z,22.76
2022-08-07T12:40:46.985Z,21.57
2022-08-07T12:43:50.871Z,20.6
2022-08-07T12:46:02.803Z,21.29
2022-08-07T12:48:41.277Z,21.12
2022-08-07T12:51:46.809Z,20.67
2022-08-07T12:54:24.357Z,20.26
2022-08-07T12:56:32.815Z,20.62
2022-08-07T12:58:53.123Z,19.84
2022-08-07T13:01:21.227Z,20.79
2022-08-07T13:04:31.828Z,20.64
2022-08-07T13:08:13.126Z,19.55
2022-08-07T13:10:42.395Z,20.09
2022-08-07T13:13:05.295Z,19.1
2022-08-07T13:15:33.550Z,18.9
2022-08-07T13:18:01.854Z,18.4
2022-08-07T13:20:30.041Z,18.07
2022-08-07T13:24:00.451Z,18.24
2022-08-07T13:26:03.623Z,17.92
2022-08-07T13:28:31.879Z,20.32
2022-08-07T13:31:01.852Z,18.4
2022-08-07T13:34:14.944Z,19.02
2022-08-07T13:36:37.939Z,19.7
2022-08-07T13:39:02.017Z,19.69
2022-08-07T13:41:30.167Z,20.15
2022-08-07T13:44:37.011Z,18.69
2022-08-07T13:47:04.867Z,18.5
2022-08-07T13:50:32.325Z,19.16
2022-08-07T13:52:05.693Z,18.25
2022-08-07T13:54:28.465Z,17.14
2022-08-07T13:57:38.341Z,18.39
2022-08-07T13:59:54.849Z,17.44
2022-08-07T14:02:22.185Z,18.83
2022-08-07T14:05:29.089Z,18.21
2022-08-07T14:08:32.838Z,18.33
2022-08-07T14:11:01.084Z,16.24
2022-08-07T14:13:33.308Z,18.18
2022-08-07T14:16:34.520Z,17.83
2022-08-07T14:19:02.893Z,18.42
2022-08-07T14:22:02.646Z,17.89
2022-08-07T14:24:36.320Z,17.36
2022-08-07T14:27:16.279Z,15.35
2022-08-07T14:30:05.997Z,17.2
2022-08-07T14:32:01.047Z,17.96
2022-08-07T14:34:30.203Z,17.74
2022-08-07T14:37:36.539Z,15.48
2022-08-07T14:40:14.972Z,16.14
2022-08-07T14:42:32.293Z,15.05
2022-08-07T14:45:46.285Z,15.26
2022-08-07T14:48:04.689Z,14.64
2022-08-07T14:53:07.950Z,15.47
2022-08-07T14:55:29.417Z,16.11
2022-08-07T14:58:34.806Z,14.44
2022-08-07T15:02:08.934Z,14.17
2022-08-07T15:04:37.171Z,16.21
2022-08-07T15:07:16.585Z,15.93
2022-08-07T15:09:47.196Z,15.43
2022-08-07T15:12:01.899Z,15.73
2022-08-07T15:14:30.510Z,17.13
2022-08-07T15:17:54.759Z,16.76
2022-08-07T15:20:23.702Z,15.86
2022-08-07T15:25:04.143Z,16.42
2022-08-07T15:27:28.968Z,16.05
2022-08-07T15:30:33.801Z,15.97
2022-08-07T15:33:04.252Z,16.37
2022-08-07T15:35:40.728Z,16.06
2022-08-07T15:38:52.076Z,15.83
2022-08-07T15:41:23.314Z,15.84
2022-08-07T15:43:33.437Z,13.35
2022-08-07T15:48:29.874Z,15.97
2022-08-07T15:54:02.130Z,14.19
2022-08-07T15:56:33.243Z,15.89
2022-08-07T15:59:39.400Z,15.36
2022-08-07T16:02:01.586Z,14.8
2022-08-07T16:04:23.999Z,16.75
2022-08-07T16:08:28.631Z,14.14
2022-08-07T16:10:34.692Z,14.69
2022-08-07T16:13:05.368Z,14.66
2022-08-07T16:15:41.942Z,13.97
2022-08-07T16:18:43.655Z,14.78
2022-08-07T16:21:53.582Z,14.11
2022-08-07T16:24:37.947Z,14.42
2022-08-07T16:26:01.222Z,14.34
2022-08-07T16:29:19.036Z,14.63
2022-08-07T16:31:50.623Z,14.27
2022-08-07T16:34:07.339Z,14.96
2022-08-07T16:36:32.103Z,13.7
2022-08-07T16:39:40.773Z,14.09
2022-08-07T16:42:04.823Z,16.28
2022-08-07T16:44:54.127Z,13.33
2022-08-07T16:47:14.443Z,13.51
2022-08-07T16:50:19.787Z,13.66
2022-08-07T16:52:51.116Z,13.98
2022-08-07T16:55:08.301Z,13.49
2022-08-07T16:58:01.243Z,14.75
2022-08-07T17:00:29.737Z,14.77
2022-08-07T17:03:58.717Z,15.24
2022-08-07T17:06:28.326Z,14.41
2022-08-07T17:08:41.136Z,13.65
2022-08-07T17:12:01.223Z,14.08
2022-08-07T17:14:17.696Z,13.95
2022-08-07T17:16:32.140Z,14.66
2022-08-07T17:19:00.321Z,13.72
2022-08-07T17:21:28.921Z,14.67
2022-08-07T17:24:33.874Z,13.51
2022-08-07T17:27:02.186Z,13.8
2022-08-07T17:30:13.869Z,14.67
2022-08-07T17:32:35.814Z,13.9
2022-08-07T17:35:40.319Z,14.42
2022-08-07T17:38:04.904Z,14.13
2022-08-07T17:40:03.564Z,15.5
2022-08-07T17:42:28.908Z,14.15
2022-08-07T17:45:34.954Z,15.2
2022-08-07T17:48:02.328Z,14.67
2022-08-07T17:50:30.860Z,14.59
2022-08-07T17:53:59.701Z,15.07
2022-08-07T17:56:06.872Z,15.79
2022-08-07T17:58:32.326Z,15.15
2022-08-07T18:01:37.807Z,15.11
2022-08-07T18:04:04.697Z,15.3
2022-08-07T18:06:37.324Z,15.53
2022-08-07T18:09:48.557Z,15.64
2022-08-07T18:12:37.095Z,16.35
2022-08-07T18:15:06.099Z,15.88
2022-08-07T18:18:36.780Z,16.15
2022-08-07T18:21:05.580Z,16.19
2022-08-07T18:22:30.093Z,16.27
2022-08-07T18:25:39.536Z,16.24
2022-08-07T18:28:03.125Z,16.3
2022-08-07T18:33:36.897Z,16.56
2022-08-07T18:36:05.927Z,16.64
2022-08-07T18:38:54.464Z,16.52
2022-08-07T18:41:08.395Z,16.76
2022-08-07T18:43:37.323Z,16.77
2022-08-07T18:46:34.991Z,16.93
2022-08-07T18:50:06.711Z,16.87
2022-08-07T18:52:35.694Z,16.99
2022-08-07T18:54:36.786Z,17.25
2022-08-07T18:57:29.929Z,17.02
2022-08-07T18:59:46.608Z,17.41
2022-08-07T19:02:19.591Z,17.04
2022-08-07T19:04:29.727Z,17.78
2022-08-07T19:07:34.316Z,17.48
2022-08-07T19:10:49.680Z,17.31
2022-08-07T19:13:10.035Z,17.35
2022-08-07T19:16:04.169Z,18.31
2022-08-07T19:18:35.296Z,17.38
2022-08-07T19:21:08.768Z,17.4
2022-08-07T19:23:57.682Z,17.66
2022-08-07T19:27:01.725Z,17.34
2022-08-07T19:30:55.054Z,17.86
2022-08-07T19:31:43.911Z,17.55
2022-08-07T19:34:00.549Z,17.42
2022-08-07T19:36:28.786Z,17.57
2022-08-07T19:39:40.658Z,17.72
2022-08-07T19:42:06.012Z,17.96
2022-08-07T19:44:31.383Z,18.36
2022-08-07T19:47:36.471Z,18
2022-08-07T19:50:05.406Z,17.81
2022-08-07T19:52:32.659Z,18.23
2022-08-07T19:55:00.634Z,18.32
2022-08-07T19:57:52.994Z,17.6
2022-08-07T20:00:34.447Z,18.08
2022-08-07T20:03:02.549Z,18.05
2022-08-07T20:05:30.722Z,17.77
2022-08-07T20:08:36.003Z,18.58
2022-08-07T20:11:09.558Z,17.93
2022-08-07T20:13:27.223Z,18.16
2022-08-07T20:16:36.044Z,17.81
2022-08-07T20:19:47.786Z,18.69
2022-08-07T20:22:03.183Z,18.03
2022-08-07T20:24:31.471Z,18.4
2022-08-07T20:27:45.936Z,18.93
2022-08-07T20:30:07.730Z,17.72
2022-08-07T20:32:39.888Z,18.23
2022-08-07T20:35:01.474Z,18.36
2022-08-07T20:37:32.154Z,18.54
2022-08-07T20:40:35.235Z,18.33
2022-08-07T20:43:03.298Z,18.39
2022-08-07T20:45:32.534Z,18.29
2022-08-07T20:48:36.862Z,18.71
2022-08-07T20:51:09.478Z,18.66
2022-08-07T20:54:02.586Z,18.46
2022-08-07T20:56:01.602Z,18.91
2022-08-07T20:58:29.872Z,19.06
2022-08-07T21:01:36.673Z,18.73
2022-08-07T21:04:19.992Z,19.38
2022-08-07T21:06:31.779Z,19.21
2022-08-07T21:09:52.269Z,19.39
2022-08-07T21:12:42.296Z,19.13
2022-08-07T21:15:02.545Z,19.47
2022-08-07T21:18:01.484Z,18.77
2022-08-07T21:20:35.896Z,19.02
2022-08-07T21:23:07.787Z,18.7
2022-08-07T21:25:38.864Z,19.19
2022-08-07T21:28:01.940Z,19.6
2022-08-07T21:30:29.846Z,19.89
2022-08-07T21:33:38.546Z,19.7
2022-08-07T21:36:04.701Z,19.05
2022-08-07T21:38:30.720Z,19.5
2022-08-07T21:41:38.100Z,19
2022-08-07T21:44:04.221Z,19.21
2022-08-07T21:46:33.051Z,20.1
2022-08-07T21:49:00.756Z,19.34
2022-08-07T21:51:32.148Z,19.23
2022-08-07T21:54:34.310Z,20
2022-08-07T21:57:02.558Z,19.67
2022-08-07T21:59:30.795Z,19.66
2022-08-07T22:02:36.144Z,19.69
2022-08-07T22:05:04.381Z,19.77
2022-08-07T22:07:35.796Z,19.26
2022-08-07T22:10:00.852Z,26.37
2022-08-07T22:12:57.962Z,20.54
2022-08-07T22:16:40.563Z,20.34
2022-08-07T22:18:31.566Z,20.79
2022-08-07T22:22:03.035Z,20.66
2022-08-07T22:24:05.091Z,19.63
2022-08-07T22:26:33.336Z,20.09
2022-08-07T22:29:01.594Z,19.68
2022-08-07T22:31:45.871Z,20.91
2022-08-07T22:34:35.558Z,19.77
2022-08-07T22:37:03.423Z,19.61
2022-08-07T22:39:35.381Z,19.7
2022-08-07T22:42:36.967Z,20.13
2022-08-07T22:45:10.844Z,20.23
2022-08-07T22:48:13.490Z,20.53
2022-08-07T22:50:01.712Z,19.93
2022-08-07T22:52:36.567Z,20.03
2022-08-07T22:55:35.281Z,20.38
2022-08-07T22:58:03.539Z,20.97
2022-08-07T23:00:32.346Z,21.52
2022-08-07T23:03:00.050Z,20.08
2022-08-07T23:06:05.267Z,19.96
2022-08-07T23:08:33.562Z,20.26
2022-08-07T23:11:01.823Z,20.13
2022-08-07T23:14:09.276Z,21.1
2022-08-07T23:16:44.978Z,20
2022-08-07T23:19:38.704Z,19.88
2022-08-07T23:22:00.726Z,20.53
2022-08-07T23:24:28.982Z,20.17
2022-08-07T23:27:34.551Z,20.12
2022-08-07T23:30:35.455Z,20.38
2022-08-07T23:32:49.823Z,20.5
2022-08-07T23:35:37.424Z,21.29
2022-08-07T23:38:04.333Z,21.44
2022-08-07T23:40:32.599Z,21.66
2022-08-07T23:43:00.832Z,21.71
2022-08-07T23:45:32.754Z,21.82
2022-08-07T23:51:02.640Z,22.55
2022-08-07T23:53:31.339Z,22.9
2022-08-07T23:56:37.911Z,22.15
2022-08-07T23:59:10.339Z,22.32
